Keystone, Indiana
Current Conditions -  °F | °C
As of 2:55 PM on Friday 19 Dec 2014 (Local Time) from KHHG Reporting Station
Overcast Overcast  
Wind Chill: 26°   Ceiling: 2200
Heat Index: 31°   Visibility: 10mi
Dew Point: 24°   Wind: 5mph
Humidity: 76%   Direction: 340°NNW
Pressure: 30.24"   Gusts: NA
Location:  40.6°N, 85.26°W
Report Text: KHHG 191955Z AUTO 34004KT 10SM OVC022 M01/M04 A3024 RMK AO2 T10061043
Loading
Personal Weather Stations






























Interactive Weather Map New forecast layout! Learn more

10-Day Weather Forecast

Advertisements
Track Severe Weather on mobile